GW2918 Weather Reports


Display with metric or nautical units.
time (UTC)temp
F
wind
direction
speed
MPH
gust
MPH
rain 1hr
in
rain 24hr
in
rain mn
in
humidity
%
barometer
mb
20240520061857 56 164 2.0 3.0 0.00 0.00 0.00 94 1017.3
20240520060857 55 98 2.0 2.0 0.00 0.00 0.00 96 1017.1
20240520055855 56 140 2.0 2.0 0.00 0.00 0.00 95 1017.0
20240520054853 56 145 2.0 2.0 0.00 0.00 0.00 95 1017.0
20240520053852 56 104 1.0 3.0 0.00 0.00 0.00 94 1017.0
20240520052851 56 189 1.0 2.0 0.00 0.00 0.00 96 1017.0
20240520051849 55 109 0.0 2.0 0.00 0.00 0.00 98 1017.1
20240520050848 55 134 1.0 2.0 0.00 0.00 0.00 97 1016.8
20240520045846 56 105 0.0 2.0 0.00 0.00 0.00 97 1016.9
20240520044844 56 110 1.0 2.0 0.00 0.00 0.00 97 1016.9
20240520043844 56 84 0.0 2.0 0.00 0.00 0.00 97 1017.0
20240520042843 56 98 2.0 2.0 0.00 0.00 0.00 97 1016.8
20240520041843 56 104 2.0 3.0 0.00 0.00 0.00 97 1017.2
20240520040842 56 92 1.0 2.0 0.00 0.00 0.00 97 1017.0
20240520035842 57 96 2.0 2.0 0.00 0.00 0.00 96 1017.2
20240520034843 57 93 1.0 2.0 0.00 0.00 0.00 96 1017.3
20240520033841 57 107 1.0 2.0 0.00 0.00 0.00 96 1017.1
20240520032841 57 94 0.0 2.0 0.00 0.00 0.00 95 1017.3
20240520031839 58 111 2.0 2.0 0.00 0.00 0.00 94 1017.5
20240520030839 58 100 1.0 2.0 0.00 0.00 0.00 93 1017.4
20240520025838 59 89 0.0 3.0 0.00 0.00 0.00 92 1017.5
20240520024836 59 118 2.0 3.0 0.00 0.00 0.00 93 1017.5
20240520023836 59 88 1.0 2.0 0.00 0.00 0.00 92 1017.5
20240520022836 59 143 1.0 2.0 0.00 0.00 0.00 92 1017.3
20240520021835 59 104 1.0 2.0 0.00 0.00 0.00 91 1017.3
20240520020834 60 112 3.0 3.0 0.00 0.00 0.00 89 1017.4
20240520015834 60 142 2.0 2.0 0.00 0.00 0.00 88 1017.0
20240520014833 62 156 0.0 2.0 0.00 0.00 0.00 83 1017.4
20240520013834 62 143 0.0 2.0 0.00 0.00 0.00 84 1017.1
20240520012833 63 202 0.0 1.0 0.00 0.00 0.00 79 1017.0
20240520011833 62 200 2.0 2.0 0.00 0.00 0.00 83 1017.0
20240520010833 62 123 2.0 2.0 0.00 0.00 0.00 84 1016.8
20240520005832 63 118 1.0 2.0 0.00 0.00 0.00 81 1016.5
20240520004831 63 169 2.0 2.0 0.00 0.00 0.00 81 1016.6
20240520003830 64 123 1.0 2.0 0.00 0.00 0.00 80 1016.4
20240520002829 64 155 1.0 2.0 0.00 0.00 0.00 77 1016.4
20240520001828 65 142 0.0 2.0 0.00 0.00 0.00 76 1016.1
20240520000827 66 95 1.0 1.0 0.00 0.00 0.00 73 1016.3
20240519235826 68 6 0.0 1.0 0.00 0.00 0.00 68 1016.3
20240519234825 68 13 0.0 2.0 0.00 0.00 0.00 67 1016.1
20240519233825 69 0 0.0 3.0 0.00 0.00 0.00 66 1016.4
20240519232824 70 22 2.0 3.0 0.00 0.00 0.00 65 1016.0
20240519231823 71 328 2.0 3.0 0.00 0.00 0.00 61 1016.3
20240519230822 71 11 0.0 4.0 0.00 0.00 0.00 59 1016.0
20240519225820 72 1 2.0 3.0 0.00 0.00 0.00 59 1016.0
20240519224818 72 325 3.0 3.0 0.00 0.00 0.00 59 1016.1
20240519223817 72 317 2.0 5.0 0.00 0.00 0.00 57 1016.0
20240519222815 73 324 3.0 4.0 0.00 0.00 0.00 56 1016.0
20240519221814 72 11 3.0 6.0 0.00 0.00 0.00 61 1016.1
20240519220814 73 340 2.0 7.0 0.00 0.00 0.00 58 1016.3
20240519215814 73 336 1.0 5.0 0.00 0.00 0.00 60 1016.4
20240519214813 74 264 2.0 4.0 0.00 0.00 0.00 59 1016.1
20240519213811 72 300 1.0 2.0 0.00 0.00 0.00 63 1016.1
20240519212810 71 37 4.0 5.0 0.00 0.00 0.00 64 1016.1
20240519211809 74 345 2.0 4.0 0.00 0.00 0.00 62 1016.1
20240519210809 71 358 2.0 6.0 0.00 0.00 0.00 64 1016.3
20240519205807 71 75 4.0 4.0 0.00 0.00 0.00 66 1016.3
20240519204805 72 356 2.0 3.0 0.00 0.00 0.00 65 1015.9
20240519203804 73 289 3.0 4.0 0.00 0.00 0.00 65 1016.0
20240519202802 71 108 0.0 6.0 0.00 0.00 0.00 68 1016.3
20240519201801 71 44 7.0 8.0 0.00 0.00 0.00 67 1016.3
20240519200800 71 80 3.0 5.0 0.00 0.00 0.00 68 1016.4
20240519195758 71 299 2.0 4.0 0.00 0.00 0.00 68 1016.3
20240519194758 72 204 3.0 4.0 0.00 0.00 0.00 69 1016.0
20240519193757 71 356 2.0 3.0 0.00 0.00 0.00 71 1016.4
20240519192757 69 334 3.0 3.0 0.00 0.00 0.00 73 1016.5
20240519191756 68 70 5.0 7.0 0.00 0.00 0.00 77 1016.8
20240519190756 68 42 2.0 5.0 0.00 0.00 0.00 75 1016.7
20240519185754 68 46 3.0 8.0 0.00 0.00 0.00 75 1017.0
20240519184753 69 45 6.0 6.0 0.00 0.00 0.00 76 1017.0
20240519183751 68 73 2.0 6.0 0.00 0.00 0.00 76 1016.8
20240519182751 67 77 4.0 8.0 0.00 0.00 0.00 78 1017.1
20240519181749 68 333 4.0 4.0 0.00 0.00 0.00 81 1016.9
20240519180748 68 41 5.0 8.0 0.00 0.00 0.00 80 1017.1
20240519175748 68 19 2.0 5.0 0.00 0.00 0.00 83 1017.3
20240519174748 67 55 4.0 6.0 0.00 0.00 0.00 79 1017.1
20240519173747 68 292 4.0 6.0 0.00 0.00 0.00 78 1017.1
20240519172747 67 314 3.0 4.0 0.00 0.00 0.00 80 1016.9
20240519171746 67 19 3.0 5.0 0.00 0.00 0.00 81 1017.1
20240519170745 68 265 4.0 5.0 0.00 0.00 0.00 86 1017.3
20240519165744 66 288 3.0 7.0 0.00 0.00 0.00 85 1017.5
20240519164742 66 326 2.0 3.0 0.00 0.00 0.00 82 1017.4
20240519163742 64 230 1.0 4.0 0.00 0.00 0.00 85 1017.8
20240519162741 65 346 3.0 5.0 0.00 0.00 0.00 84 1017.6
20240519161740 64 356 2.0 7.0 0.00 0.00 0.00 86 1017.7
20240519160738 63 29 5.0 6.0 0.00 0.00 0.00 87 1017.7
20240519155739 63 352 2.0 6.0 0.00 0.00 0.00 90 1017.8
20240519154738 62 23 3.0 6.0 0.00 0.00 0.00 91 1017.7
20240519153737 62 46 8.0 10.0 0.00 0.00 0.00 92 1017.8
20240519152736 61 54 6.0 6.0 0.00 0.00 0.00 94 1017.7
20240519151736 61 45 4.0 6.0 0.00 0.00 0.00 94 1017.6
20240519150734 60 315 2.0 4.0 0.00 0.00 0.00 93 1017.5
20240519145732 60 6 3.0 6.0 0.00 0.00 0.00 95 1017.8
20240519144730 60 45 6.0 9.0 0.00 0.00 0.00 94 1017.5
20240519143728 60 58 3.0 7.0 0.00 0.00 0.00 93 1017.6
20240519142727 60 349 0.0 3.0 0.00 0.00 0.00 92 1017.4
20240519141727 60 62 2.0 2.0 0.00 0.00 0.00 94 1017.8
20240519140726 60 342 2.0 4.0 0.00 0.00 0.00 94 1017.8
20240519135725 59 63 3.0 5.0 0.00 0.00 0.00 95 1017.6
20240519134723 59 241 2.0 4.0 0.00 0.00 0.00 96 1017.6
20240519133722 59 36 0.0 3.0 0.00 0.00 0.00 96 1017.7
20240519132721 60 27 2.0 2.0 0.00 0.00 0.00 96 1017.5
20240519131721 59 80 3.0 7.0 0.00 0.00 0.00 95 1017.5
20240519130721 59 127 0.0 1.0 0.00 0.00 0.00 95 1017.7
20240519125719 59 272 2.0 4.0 0.00 0.00 0.00 96 1017.4
20240519124717 59 147 0.0 2.0 0.00 0.00 0.00 96 1017.7
20240519123716 59 188 1.0 2.0 0.00 0.00 0.00 96 1017.6
20240519122714 59 183 4.0 4.0 0.00 0.00 0.00 97 1017.2
20240519121713 58 145 2.0 3.0 0.00 0.00 0.00 97 1017.4
20240519120713 58 178 2.0 4.0 0.00 0.00 0.00 98 1017.2
20240519115713 58 174 2.0 4.0 0.00 0.00 0.00 99 1017.2
20240519114712 57 180 2.0 3.0 0.00 0.00 0.00 99 1017.1
20240519113712 57 189 1.0 4.0 0.00 0.00 0.00 99 1017.1
20240519112712 57 117 2.0 2.0 0.00 0.00 0.00 99 1017.0
20240519111710 57 171 2.0 5.0 0.00 0.00 0.00 99 1017.0
20240519110710 57 138 2.0 4.0 0.00 0.00 0.00 99 1016.9
20240519105709 57 186 2.0 3.0 0.00 0.00 0.00 99 1017.0
20240519104708 56 82 0.0 2.0 0.00 0.00 0.00 99 1016.8
20240519103708 56 120 1.0 3.0 0.00 0.00 0.00 99 1016.9
20240519102706 56 113 1.0 2.0 0.00 0.00 0.00 99 1016.7
20240519101705 57 129 1.0 2.0 0.00 0.00 0.00 99 1016.6
20240519100704 56 98 0.0 2.0 0.00 0.00 0.00 99 1016.4
20240519095705 56 190 0.0 1.0 0.00 0.00 0.00 99 1016.3
20240519094703 56 180 1.0 3.0 0.00 0.00 0.00 99 1016.1
20240519093703 56 135 2.0 4.0 0.00 0.00 0.00 99 1016.3
20240519092702 56 145 2.0 2.0 0.00 0.00 0.00 99 1016.0
20240519091702 57 146 0.0 2.0 0.00 0.00 0.00 99 1015.8
20240519090700 57 128 2.0 2.0 0.00 0.00 0.00 99 1016.0
20240519085659 57 121 2.0 2.0 0.00 0.00 0.00 99 1015.9
20240519084657 57 73 1.0 2.0 0.00 0.00 0.00 99 1015.8
20240519083657 57 115 2.0 3.0 0.00 0.00 0.00 99 1016.0
20240519082656 57 139 1.0 2.0 0.00 0.00 0.00 99 1015.8
20240519081654 57 62 1.0 2.0 0.00 0.00 0.00 99 1015.8
20240519080653 57 131 1.0 3.0 0.00 0.00 0.00 99 1015.9
20240519075652 57 76 0.0 2.0 0.00 0.00 0.00 99 1015.8
20240519074651 57 147 0.0 3.0 0.00 0.00 0.00 99 1015.7
20240519073651 57 87 0.0 2.0 0.00 0.00 0.00 99 1015.8
20240519072650 57 97 1.0 2.0 0.00 0.00 0.00 99 1015.8
20240519071648 57 34 0.0 4.0 0.00 0.00 0.00 99 1015.7
20240519070646 57 198 5.0 6.0 0.00 0.00 0.00 99 1015.7
20240519065645 57 123 1.0 4.0 0.00 0.00 0.00 99 1015.5
20240519064644 57 103 2.0 2.0 0.00 0.00 0.00 99 1015.6
20240519063643 57 105 4.0 4.0 0.00 0.00 0.00 99 1015.5
20240519062643 57 121 3.0 4.0 0.00 0.00 0.00 99 1015.5